createdAt,value
2024-01-30T00:01:14.917Z,101568.72
2024-01-30T00:03:43.258Z,101573.06
2024-01-30T00:06:11.413Z,101576.31
2024-01-30T00:08:39.701Z,101565.00
2024-01-30T00:11:09.501Z,101579.03
2024-01-30T00:13:37.672Z,101588.06
2024-01-30T00:16:06.162Z,101585.56
2024-01-30T00:18:36.891Z,101588.06
2024-01-30T00:21:05.199Z,101591.22
2024-01-30T00:23:33.239Z,101592.84
2024-01-30T00:26:01.650Z,101596.09
2024-01-30T00:28:30.215Z,101595.13
2024-01-30T00:30:58.334Z,101608.47
2024-01-30T00:33:26.797Z,101605.88
2024-01-30T00:35:55.301Z,101591.41
2024-01-30T00:38:23.952Z,101602.22
2024-01-30T00:40:52.029Z,101610.66
2024-01-30T00:43:20.663Z,101604.81
2024-01-30T00:45:48.904Z,101604.81
2024-01-30T00:48:17.088Z,101596.41
2024-01-30T00:50:45.741Z,101595.00
2024-01-30T00:53:14.021Z,101621.09
2024-01-30T00:55:43.130Z,101611.09
2024-01-30T00:58:11.321Z,101616.75
2024-01-30T01:00:41.562Z,101614.78
2024-01-30T01:03:10.934Z,101629.13
2024-01-30T01:05:38.996Z,101617.19
2024-01-30T01:08:07.322Z,101636.41
2024-01-30T01:10:35.554Z,101641.28
2024-01-30T01:13:03.610Z,101638.78
2024-01-30T01:15:31.768Z,101633.78
2024-01-30T01:18:00.057Z,101623.47
2024-01-30T01:20:30.300Z,101625.53
2024-01-30T01:22:58.401Z,101623.03
2024-01-30T01:25:27.557Z,101622.81
2024-01-30T01:27:55.819Z,101641.28
2024-01-30T01:30:24.125Z,101631.31
2024-01-30T01:32:56.779Z,101644.78
2024-01-30T01:35:26.593Z,101648.03
2024-01-30T01:38:01.112Z,101636.19
2024-01-30T01:40:29.900Z,101638.59
2024-01-30T01:42:58.359Z,101666.19
2024-01-30T01:45:26.593Z,101649.53
2024-01-30T01:47:55.496Z,101651.94
2024-01-30T01:50:24.440Z,101651.94
2024-01-30T01:52:54.223Z,101647.69
2024-01-30T01:55:26.254Z,101651.28
2024-01-30T01:57:56.029Z,101653.69
2024-01-30T02:00:25.456Z,101665.19
2024-01-30T02:02:56.341Z,101668.56
2024-01-30T02:05:24.369Z,101672.59
2024-01-30T02:07:53.515Z,101669.09
2024-01-30T02:10:21.680Z,101668.34
2024-01-30T02:12:51.440Z,101679.09
2024-01-30T02:15:19.956Z,101660.59
2024-01-30T02:17:48.086Z,101675.59
2024-01-30T02:20:16.150Z,101689.84
2024-01-30T02:22:45.305Z,101682.88
2024-01-30T02:25:13.565Z,101675.41
2024-01-30T02:27:42.048Z,101676.66
2024-01-30T02:30:10.569Z,101695.38
2024-01-30T02:32:38.662Z,101677.91
2024-01-30T02:35:10.783Z,101671.16
2024-01-30T02:37:38.829Z,101681.81
2024-01-30T02:40:09.544Z,101678.41
2024-01-30T02:42:37.564Z,101689.16
2024-01-30T02:45:05.799Z,101689.94
2024-01-30T02:47:33.745Z,101694.94
2024-01-30T02:50:01.844Z,101698.19
2024-01-30T02:52:30.238Z,101688.94
2024-01-30T02:54:58.406Z,101707.63
2024-01-30T02:57:26.621Z,101699.63
2024-01-30T02:59:54.591Z,101678.00
2024-01-30T03:02:22.501Z,101690.25
2024-01-30T03:04:50.424Z,101679.94
2024-01-30T03:07:18.580Z,101705.59
2024-01-30T03:09:46.658Z,101714.06
2024-01-30T03:12:14.608Z,101709.72
2024-01-30T03:14:42.545Z,101726.66
2024-01-30T03:17:10.429Z,101722.56
2024-01-30T03:19:38.372Z,101724.31
2024-01-30T03:22:06.581Z,101722.56
2024-01-30T03:24:34.567Z,101723.31
2024-01-30T03:27:03.023Z,101715.81
2024-01-30T03:29:31.005Z,101724.91
2024-01-30T03:31:58.843Z,101734.16
2024-01-30T03:34:26.799Z,101740.81
2024-01-30T03:36:54.810Z,101753.19
2024-01-30T03:39:22.735Z,101758.28
2024-01-30T03:41:50.672Z,101764.28
2024-01-30T03:44:18.689Z,101755.22
2024-01-30T03:46:46.557Z,101767.75
2024-01-30T03:49:14.620Z,101772.75
2024-01-30T03:51:42.767Z,101771.13
2024-01-30T03:54:11.537Z,101772.97
2024-01-30T03:56:39.406Z,101773.97
2024-01-30T03:59:07.456Z,101782.97
2024-01-30T04:01:35.427Z,101783.22
2024-01-30T04:04:03.455Z,101777.31
2024-01-30T04:06:31.440Z,101792.44
2024-01-30T04:08:59.265Z,101788.84
2024-01-30T04:11:27.101Z,101791.69
2024-01-30T04:13:55.022Z,101793.41
2024-01-30T04:16:26.296Z,101792.66
2024-01-30T04:18:54.966Z,101793.66
2024-01-30T04:21:24.034Z,101796.03
2024-01-30T04:23:53.786Z,101798.88
2024-01-30T04:26:21.911Z,101800.41
2024-01-30T04:28:49.804Z,101798.75
2024-01-30T04:31:17.715Z,101808.75
2024-01-30T04:33:45.855Z,101799.31
2024-01-30T04:36:16.798Z,101813.66
2024-01-30T04:38:44.629Z,101816.91
2024-01-30T04:41:12.518Z,101813.66
2024-01-30T04:43:40.423Z,101813.00
2024-01-30T04:46:08.480Z,101821.50
2024-01-30T04:48:36.644Z,101812.16
2024-01-30T04:51:05.984Z,101822.47
2024-01-30T04:53:33.961Z,101830.84
2024-01-30T04:56:01.857Z,101818.25
2024-01-30T04:58:29.787Z,101823.34
2024-01-30T05:00:58.935Z,101832.59
2024-01-30T05:03:27.311Z,101833.25
2024-01-30T05:05:55.487Z,101835.59
2024-01-30T05:08:23.447Z,101837.47
2024-01-30T05:10:51.360Z,101841.59
2024-01-30T05:13:19.671Z,101841.50
2024-01-30T05:15:47.627Z,101841.59
2024-01-30T05:18:15.778Z,101837.25
2024-01-30T05:20:43.932Z,101842.59
2024-01-30T05:23:11.849Z,101851.06
2024-01-30T05:25:39.758Z,101852.16
2024-01-30T05:28:08.040Z,101846.53
2024-01-30T05:30:35.951Z,101845.00
2024-01-30T05:33:04.434Z,101846.00
2024-01-30T05:35:33.122Z,101852.63
2024-01-30T05:38:01.024Z,101848.25
2024-01-30T05:40:29.238Z,101863.41
2024-01-30T05:42:57.429Z,101862.50
2024-01-30T05:45:25.437Z,101862.41
2024-01-30T05:47:53.403Z,101861.66
2024-01-30T05:50:21.906Z,101858.25
2024-01-30T05:52:49.772Z,101846.75
2024-01-30T05:55:17.785Z,101865.25
2024-01-30T05:57:45.668Z,101868.75
2024-01-30T06:00:14.063Z,101871.25
2024-01-30T06:02:42.176Z,101874.50
2024-01-30T06:05:10.597Z,101881.44
2024-01-30T06:07:38.821Z,101867.19
2024-01-30T06:10:07.675Z,101865.59
2024-01-30T06:12:35.581Z,101868.09
2024-01-30T06:15:03.925Z,101859.84
2024-01-30T06:17:31.862Z,101870.69
2024-01-30T06:19:59.948Z,101878.94
2024-01-30T06:22:28.019Z,101881.59
2024-01-30T06:24:56.047Z,101884.94
2024-01-30T06:27:23.963Z,101884.41
2024-01-30T06:29:51.984Z,101888.66
2024-01-30T06:32:19.893Z,101888.66
2024-01-30T06:34:47.803Z,101891.28
2024-01-30T06:37:15.711Z,101902.91
2024-01-30T06:39:43.729Z,101892.91
2024-01-30T06:42:12.799Z,101883.66
2024-01-30T06:44:40.721Z,101895.28
2024-01-30T06:47:08.670Z,101899.53
2024-01-30T06:49:36.778Z,101909.66
2024-01-30T06:52:08.682Z,101901.81
2024-01-30T06:54:36.677Z,101912.91
2024-01-30T06:57:04.894Z,101910.31
2024-01-30T06:59:33.631Z,101900.50
2024-01-30T07:02:01.704Z,101905.50
2024-01-30T07:04:29.713Z,101907.03
2024-01-30T07:06:59.028Z,101906.16
2024-01-30T07:09:27.038Z,101921.41
2024-01-30T07:11:57.216Z,101915.66
2024-01-30T07:14:25.050Z,101925.00
2024-01-30T07:16:53.189Z,101933.38
2024-01-30T07:19:21.109Z,101939.25
2024-01-30T07:21:49.118Z,101943.25
2024-01-30T07:24:17.105Z,101925.06
2024-01-30T07:26:45.098Z,101957.16
2024-01-30T07:29:13.100Z,101941.06
2024-01-30T07:31:42.114Z,101947.72
2024-01-30T07:34:10.675Z,101950.31
2024-01-30T07:36:38.623Z,101952.91
2024-01-30T07:39:08.034Z,101964.44
2024-01-30T07:41:35.973Z,101963.91
2024-01-30T07:44:04.958Z,101958.16
2024-01-30T07:46:32.902Z,101969.78
2024-01-30T07:49:01.912Z,101960.53
2024-01-30T07:51:30.927Z,101961.31
2024-01-30T07:54:00.217Z,101982.28
2024-01-30T07:56:28.411Z,101977.94
2024-01-30T07:58:56.405Z,101977.94
2024-01-30T08:01:24.540Z,101989.56
2024-01-30T08:03:52.512Z,101987.94
2024-01-30T08:06:21.440Z,101985.22
2024-01-30T08:08:49.440Z,101995.31
2024-01-30T08:11:17.380Z,101997.19
2024-01-30T08:13:45.312Z,101996.94
2024-01-30T08:16:15.148Z,101995.53
2024-01-30T08:18:43.683Z,102009.78
2024-01-30T08:21:11.610Z,102016.56
2024-01-30T08:23:41.378Z,102004.69
2024-01-30T08:26:09.426Z,102021.69
2024-01-30T08:28:37.423Z,102032.31
2024-01-30T08:31:05.581Z,102024.06
2024-01-30T08:33:33.623Z,102033.31
2024-01-30T08:36:01.445Z,102034.06
2024-01-30T08:38:29.422Z,102027.56
2024-01-30T08:40:58.296Z,102037.66
2024-01-30T08:43:26.268Z,102046.69
2024-01-30T08:45:54.389Z,102050.81
2024-01-30T08:48:24.946Z,102035.81
2024-01-30T08:50:53.062Z,102031.44
2024-01-30T08:53:21.051Z,102039.41
2024-01-30T08:55:49.040Z,102050.41
2024-01-30T08:58:19.853Z,102054.66
2024-01-30T09:00:48.123Z,102046.28
2024-01-30T09:03:16.098Z,102058.03
2024-01-30T09:05:43.904Z,102056.16
2024-01-30T09:08:12.176Z,102051.28
2024-01-30T09:10:40.191Z,102052.81
2024-01-30T09:13:08.182Z,102059.53
2024-01-30T09:15:37.004Z,102069.69
2024-01-30T09:18:05.139Z,102057.81
2024-01-30T09:20:34.993Z,102069.69
2024-01-30T09:23:03.300Z,102065.44
2024-01-30T09:25:31.274Z,102063.78
2024-01-30T09:27:59.297Z,102065.44
2024-01-30T09:30:27.301Z,102069.91
2024-01-30T09:32:55.304Z,102071.66
2024-01-30T09:35:23.389Z,102069.13
2024-01-30T09:37:51.519Z,102065.78
2024-01-30T09:40:20.785Z,102067.63
2024-01-30T09:42:53.382Z,102077.75
2024-01-30T09:45:21.690Z,102078.41
2024-01-30T09:47:49.775Z,102074.25
2024-01-30T09:50:18.643Z,102071.75
2024-01-30T09:52:47.425Z,102085.25
2024-01-30T09:55:15.838Z,102078.75
2024-01-30T09:57:44.809Z,102083.88
2024-01-30T10:00:13.503Z,102082.00
2024-01-30T10:02:42.488Z,102096.38
2024-01-30T10:05:11.042Z,102087.00
2024-01-30T10:07:39.241Z,102090.91
2024-01-30T10:10:08.590Z,102095.81
2024-01-30T10:12:36.559Z,102097.41
2024-01-30T10:15:04.604Z,102106.16
2024-01-30T10:17:34.161Z,102098.53
2024-01-30T10:20:06.358Z,102105.16
2024-01-30T10:22:34.737Z,102118.78
2024-01-30T10:25:06.092Z,102121.28
2024-01-30T10:27:34.724Z,102128.91
2024-01-30T10:30:02.654Z,102120.19
2024-01-30T10:32:30.576Z,102129.66
2024-01-30T10:34:58.717Z,102128.16
2024-01-30T10:37:30.240Z,102133.03
2024-01-30T10:40:02.093Z,102143.28
2024-01-30T10:42:34.103Z,102146.56
2024-01-30T10:45:10.386Z,102149.16
2024-01-30T10:47:39.407Z,102151.66
2024-01-30T10:50:09.673Z,102151.66
2024-01-30T10:52:38.681Z,102159.28
2024-01-30T10:55:10.216Z,102165.19
2024-01-30T10:57:38.816Z,102170.19
2024-01-30T11:00:12.461Z,102174.53
2024-01-30T11:02:46.677Z,102184.31
2024-01-30T11:05:17.465Z,102181.81
2024-01-30T11:07:45.512Z,102179.19
2024-01-30T11:10:17.164Z,102178.94
2024-01-30T11:12:48.099Z,102180.06
2024-01-30T11:15:17.506Z,102197.72
2024-01-30T11:17:54.615Z,102197.06
2024-01-30T11:20:23.566Z,102204.69
2024-01-30T11:22:55.831Z,102210.31
2024-01-30T11:25:25.514Z,102203.69
2024-01-30T11:27:55.520Z,102221.94
2024-01-30T11:30:30.216Z,102229.44
2024-01-30T11:33:03.333Z,102220.97
2024-01-30T11:35:37.684Z,102225.09
2024-01-30T11:38:06.690Z,102242.75
2024-01-30T11:40:35.908Z,102242.75
2024-01-30T11:43:06.446Z,102242.84
2024-01-30T11:45:35.477Z,102241.22
2024-01-30T11:48:05.780Z,102244.72
2024-01-30T11:50:35.984Z,102242.84
2024-01-30T11:53:04.781Z,102257.22
2024-01-30T11:55:34.742Z,102253.97
2024-01-30T11:58:04.388Z,102254.84
2024-01-30T12:00:36.206Z,102254.09
2024-01-30T12:03:07.028Z,102241.97
2024-01-30T12:05:35.079Z,102264.09
2024-01-30T12:08:03.610Z,102275.13
2024-01-30T12:10:32.135Z,102277.72
2024-01-30T12:13:00.565Z,102281.13
2024-01-30T12:15:28.841Z,102299.75
2024-01-30T12:18:08.134Z,102294.63
2024-01-30T12:20:36.541Z,102309.13
2024-01-30T12:23:04.607Z,102312.66
2024-01-30T12:25:33.410Z,102305.25
2024-01-30T12:28:01.537Z,102322.50
2024-01-30T12:30:30.770Z,102325.25
2024-01-30T12:32:58.810Z,102311.22
2024-01-30T12:35:28.595Z,102327.25
2024-01-30T12:37:57.693Z,102328.34
2024-01-30T12:40:28.296Z,102334.47
2024-01-30T12:42:56.539Z,102351.63
2024-01-30T12:45:24.614Z,102347.47
2024-01-30T12:47:53.242Z,102340.72
2024-01-30T12:50:21.505Z,102350.88
2024-01-30T12:52:50.559Z,102355.25
2024-01-30T12:55:19.692Z,102358.97
2024-01-30T12:57:48.014Z,102355.78
2024-01-30T13:00:18.970Z,102365.44
2024-01-30T13:02:47.278Z,102360.41
2024-01-30T13:05:15.536Z,102363.03
2024-01-30T13:07:43.697Z,102366.78
2024-01-30T13:10:11.795Z,102368.56
2024-01-30T13:12:40.147Z,102372.41
2024-01-30T13:15:08.425Z,102374.91
2024-01-30T13:17:36.453Z,102378.66
2024-01-30T13:20:11.135Z,102377.13
2024-01-30T13:22:41.114Z,102380.88
2024-01-30T13:25:09.732Z,102380.59
2024-01-30T13:27:39.667Z,102376.81
2024-01-30T13:30:11.070Z,102381.28
2024-01-30T13:32:40.098Z,102393.81
2024-01-30T13:35:08.248Z,102380.53
2024-01-30T13:37:36.635Z,102381.34
2024-01-30T13:40:10.766Z,102385.50
2024-01-30T13:42:40.843Z,102390.88
2024-01-30T13:45:11.919Z,102391.59
2024-01-30T13:47:40.709Z,102393.94
2024-01-30T13:50:09.883Z,102395.25
2024-01-30T13:52:43.865Z,102408.00
2024-01-30T13:55:14.017Z,102403.88
2024-01-30T13:57:42.187Z,102405.59
2024-01-30T14:00:10.765Z,102416.13
2024-01-30T14:02:38.812Z,102422.00
2024-01-30T14:05:08.060Z,102424.00
2024-01-30T14:07:37.572Z,102423.38
2024-01-30T14:10:10.063Z,102430.44
2024-01-30T14:12:39.629Z,102430.81
2024-01-30T14:15:16.438Z,102438.03
2024-01-30T14:17:51.892Z,102440.88
2024-01-30T14:20:19.948Z,102436.00
2024-01-30T14:22:48.176Z,102427.50
2024-01-30T14:25:17.457Z,102437.72
2024-01-30T14:27:45.471Z,102438.50
2024-01-30T14:30:13.798Z,102437.63
2024-01-30T14:32:42.686Z,102438.31
2024-01-30T14:35:10.902Z,102434.16
2024-01-30T14:37:40.059Z,102447.94
2024-01-30T14:40:11.540Z,102458.88
2024-01-30T14:42:39.662Z,102456.16
2024-01-30T14:45:09.502Z,102463.59
2024-01-30T14:47:38.187Z,102458.69
2024-01-30T14:50:09.038Z,102462.81
2024-01-30T14:52:39.142Z,102466.09
2024-01-30T14:55:08.010Z,102470.16
2024-01-30T14:57:36.636Z,102464.97
2024-01-30T15:00:04.912Z,102462.47
2024-01-30T15:02:32.791Z,102442.34
2024-01-30T15:05:01.013Z,102461.22
2024-01-30T15:07:36.468Z,102459.28
2024-01-30T15:10:09.201Z,102458.97
2024-01-30T15:12:37.260Z,102449.25
2024-01-30T15:15:06.952Z,102443.66
2024-01-30T15:17:34.992Z,102456.56
2024-01-30T15:20:03.101Z,102454.81
2024-01-30T15:22:31.060Z,102446.28
2024-01-30T15:24:59.157Z,102445.19
2024-01-30T15:27:30.179Z,102433.69
2024-01-30T15:29:58.636Z,102436.13
2024-01-30T15:32:26.808Z,102442.56
2024-01-30T15:34:55.064Z,102437.53
2024-01-30T15:37:23.599Z,102443.00
2024-01-30T15:39:51.538Z,102440.75
2024-01-30T15:42:19.502Z,102425.94
2024-01-30T15:44:47.404Z,102435.75
2024-01-30T15:47:15.382Z,102425.63
2024-01-30T15:49:43.529Z,102422.34
2024-01-30T15:52:16.074Z,102426.03
2024-01-30T15:54:44.073Z,102421.13
2024-01-30T15:57:12.182Z,102412.06
2024-01-30T15:59:40.107Z,102408.63
2024-01-30T16:02:08.524Z,102409.41
2024-01-30T16:04:36.578Z,102402.75
2024-01-30T16:07:05.339Z,102408.19
2024-01-30T16:09:34.094Z,102395.97
2024-01-30T16:12:01.976Z,102408.38
2024-01-30T16:14:29.882Z,102402.94
2024-01-30T16:16:57.884Z,102417.84
2024-01-30T16:19:25.901Z,102417.13
2024-01-30T16:21:54.197Z,102416.16
2024-01-30T16:24:24.767Z,102404.06
2024-01-30T16:26:52.682Z,102397.22
2024-01-30T16:29:20.539Z,102409.56
2024-01-30T16:31:48.460Z,102399.91
2024-01-30T16:34:16.385Z,102408.50
2024-01-30T16:36:45.447Z,102411.97
2024-01-30T16:39:13.704Z,102402.25
2024-01-30T16:41:42.376Z,102410.69
2024-01-30T16:44:10.407Z,102404.28
2024-01-30T16:46:40.034Z,102408.00
2024-01-30T16:49:08.068Z,102409.88
2024-01-30T16:51:36.170Z,102398.06
2024-01-30T16:54:04.113Z,102402.44
2024-01-30T16:56:31.987Z,102402.41
2024-01-30T16:58:59.810Z,102393.88
2024-01-30T17:01:28.357Z,102390.13
2024-01-30T17:03:56.595Z,102384.94
2024-01-30T17:06:24.552Z,102412.59
2024-01-30T17:08:52.464Z,102398.31
2024-01-30T17:11:20.498Z,102403.25
2024-01-30T17:13:48.426Z,102405.25
2024-01-30T17:16:19.143Z,102392.56
2024-01-30T17:18:49.094Z,102399.75
2024-01-30T17:21:22.075Z,102396.66
2024-01-30T17:23:50.159Z,102396.25
2024-01-30T17:26:18.257Z,102398.16
2024-01-30T17:28:46.410Z,102394.34
2024-01-30T17:31:14.387Z,102390.66
2024-01-30T17:33:43.538Z,102388.78
2024-01-30T17:36:11.625Z,102384.09
2024-01-30T17:38:39.502Z,102385.66
2024-01-30T17:41:12.323Z,102378.97
2024-01-30T17:43:41.520Z,102377.63
2024-01-30T17:46:10.598Z,102364.84
2024-01-30T17:48:38.781Z,102376.88
2024-01-30T17:51:07.284Z,102375.91
2024-01-30T17:53:35.171Z,102383.66
2024-01-30T17:56:07.256Z,102386.16
2024-01-30T17:58:35.276Z,102386.69
2024-01-30T18:01:03.489Z,102384.09
2024-01-30T18:03:31.649Z,102384.47
2024-01-30T18:06:01.442Z,102384.47
2024-01-30T18:08:30.058Z,102389.69
2024-01-30T18:10:58.776Z,102393.19
2024-01-30T18:13:27.309Z,102384.03
2024-01-30T18:15:55.329Z,102381.28
2024-01-30T18:18:28.321Z,102390.97
2024-01-30T18:20:58.673Z,102393.28
2024-01-30T18:23:26.770Z,102376.69
2024-01-30T18:26:01.622Z,102384.25
2024-01-30T18:28:29.715Z,102384.03
2024-01-30T18:30:58.378Z,102377.63
2024-01-30T18:33:26.565Z,102375.78
2024-01-30T18:35:54.720Z,102377.22
2024-01-30T18:38:23.684Z,102374.63
2024-01-30T18:40:51.846Z,102376.97
2024-01-30T18:43:20.108Z,102382.59
2024-01-30T18:45:56.462Z,102376.28
2024-01-30T18:48:24.554Z,102386.38
2024-01-30T18:50:52.555Z,102369.81
2024-01-30T18:53:22.268Z,102365.91
2024-01-30T18:55:50.374Z,102381.94
2024-01-30T18:58:21.038Z,102380.97
2024-01-30T19:00:50.624Z,102382.63
2024-01-30T19:03:22.619Z,102393.03
2024-01-30T19:05:51.028Z,102389.44
2024-01-30T19:08:19.130Z,102395.72
2024-01-30T19:10:47.979Z,102378.50
2024-01-30T19:13:16.584Z,102380.66
2024-01-30T19:15:45.607Z,102393.53
2024-01-30T19:18:14.572Z,102395.94
2024-01-30T19:20:45.507Z,102381.72
2024-01-30T19:23:13.558Z,102392.31
2024-01-30T19:25:43.380Z,102390.75
2024-01-30T19:28:13.967Z,102392.06
2024-01-30T19:30:41.957Z,102396.22
2024-01-30T19:33:10.075Z,102393.63
2024-01-30T19:35:38.167Z,102402.16
2024-01-30T19:38:06.606Z,102397.56
2024-01-30T19:40:34.646Z,102403.69
2024-01-30T19:43:02.764Z,102396.13
2024-01-30T19:45:30.702Z,102405.34
2024-01-30T19:47:58.682Z,102385.22
2024-01-30T19:50:26.812Z,102394.50
2024-01-30T19:52:54.880Z,102399.41
2024-01-30T19:55:25.485Z,102398.66
2024-01-30T19:57:54.898Z,102391.00
2024-01-30T20:00:22.947Z,102392.19
2024-01-30T20:02:50.973Z,102400.16
2024-01-30T20:05:19.362Z,102400.06
2024-01-30T20:07:47.470Z,102401.91
2024-01-30T20:10:15.422Z,102398.41
2024-01-30T20:12:43.666Z,102399.03
2024-01-30T20:15:13.339Z,102402.97
2024-01-30T20:17:41.397Z,102409.53
2024-01-30T20:20:12.922Z,102413.31
2024-01-30T20:22:41.777Z,102400.22
2024-01-30T20:25:17.559Z,102410.34
2024-01-30T20:27:47.422Z,102411.75
2024-01-30T20:30:15.764Z,102401.16
2024-01-30T20:32:43.708Z,102399.59
2024-01-30T20:35:12.532Z,102407.13
2024-01-30T20:37:40.685Z,102401.44
2024-01-30T20:40:09.593Z,102405.22
2024-01-30T20:42:37.687Z,102400.59
2024-01-30T20:45:06.202Z,102405.16
2024-01-30T20:47:34.828Z,102413.97
2024-01-30T20:50:03.844Z,102406.63
2024-01-30T20:52:32.045Z,102405.84
2024-01-30T20:55:00.495Z,102406.78
2024-01-30T20:57:28.562Z,102412.25
2024-01-30T20:59:56.754Z,102407.44
2024-01-30T21:02:24.789Z,102416.34
2024-01-30T21:04:52.978Z,102412.09
2024-01-30T21:07:24.108Z,102407.81
2024-01-30T21:09:53.151Z,102414.13
2024-01-30T21:12:21.208Z,102417.16
2024-01-30T21:14:49.671Z,102415.91
2024-01-30T21:17:17.677Z,102411.44
2024-01-30T21:19:45.712Z,102417.94
2024-01-30T21:22:14.520Z,102414.84
2024-01-30T21:24:42.614Z,102414.59
2024-01-30T21:27:10.560Z,102402.56
2024-01-30T21:29:40.738Z,102411.09
2024-01-30T21:32:09.114Z,102420.09
2024-01-30T21:34:37.407Z,102423.25
2024-01-30T21:37:05.600Z,102412.75
2024-01-30T21:39:33.729Z,102421.28
2024-01-30T21:42:01.682Z,102416.00
2024-01-30T21:44:31.171Z,102423.66
2024-01-30T21:46:59.857Z,102421.66
2024-01-30T21:49:28.043Z,102419.16
2024-01-30T21:51:56.597Z,102416.00
2024-01-30T21:54:24.730Z,102419.25
2024-01-30T21:56:53.110Z,102416.00
2024-01-30T21:59:21.545Z,102407.00
2024-01-30T22:01:50.007Z,102414.66
2024-01-30T22:04:18.551Z,102408.53
2024-01-30T22:06:48.391Z,102409.50
2024-01-30T22:09:17.100Z,102410.25
2024-01-30T22:11:45.184Z,102406.03
2024-01-30T22:14:13.135Z,102402.63
2024-01-30T22:16:41.097Z,102409.16
2024-01-30T22:19:11.512Z,102404.06
2024-01-30T22:21:39.502Z,102412.53
2024-01-30T22:24:08.293Z,102408.31
2024-01-30T22:26:44.734Z,102409.97
2024-01-30T22:29:12.858Z,102413.31
2024-01-30T22:31:41.011Z,102416.56
2024-01-30T22:34:09.127Z,102416.56
2024-01-30T22:36:37.168Z,102418.34
2024-01-30T22:39:10.475Z,102414.97
2024-01-30T22:41:38.808Z,102410.91
2024-01-30T22:44:07.248Z,102419.31
2024-01-30T22:46:35.162Z,102419.72
2024-01-30T22:49:03.488Z,102414.44
2024-01-30T22:51:31.543Z,102420.34
2024-01-30T22:53:59.483Z,102424.84
2024-01-30T22:56:27.421Z,102424.84
2024-01-30T22:58:55.311Z,102424.72
2024-01-30T23:01:23.574Z,102422.22
2024-01-30T23:03:51.795Z,102421.59
2024-01-30T23:06:19.913Z,102413.06
2024-01-30T23:08:47.886Z,102421.47
2024-01-30T23:11:16.076Z,102417.97
2024-01-30T23:13:44.765Z,102421.38
2024-01-30T23:16:12.886Z,102418.84
2024-01-30T23:18:41.181Z,102417.22
2024-01-30T23:21:09.166Z,102412.22
2024-01-30T23:23:37.202Z,102428.09
2024-01-30T23:26:06.093Z,102422.22
2024-01-30T23:28:34.163Z,102421.38
2024-01-30T23:31:02.398Z,102418.97
2024-01-30T23:33:30.697Z,102416.34
2024-01-30T23:35:58.950Z,102412.22
2024-01-30T23:38:27.184Z,102408.84
2024-01-30T23:40:55.232Z,102414.81
2024-01-30T23:43:25.650Z,102408.19
2024-01-30T23:45:55.204Z,102398.03
2024-01-30T23:48:23.576Z,102399.56
2024-01-30T23:50:52.973Z,102405.56
2024-01-30T23:53:21.116Z,102406.44
2024-01-30T23:55:49.399Z,102401.44
2024-01-30T23:58:17.721Z,102397.28
